Time;durP1;ratioP1;P1;durP2;ratioP2;P2;SDS_P1;SDS_P2;PMS_P1;PMS_P2;Temp;Humidity;BMP_temperature;BMP_pressure;BME280_temperature;BME280_humidity;BME280_pressure;Samples;Min_cycle;Max_cycle;Signal;HPM_P1;HPM_P2
2024/01/29 00:02:26;;;;;;;9.03;4.47;;;;;;;0.03;100.00;102660.28;5009821;28;20524;-73
2024/01/29 00:04:52;;;;;;;17.10;5.03;;;;;;;0.02;100.00;102650.09;5009542;28;20200;-72
2024/01/29 00:07:21;;;;;;;12.60;5.57;;;;;;;0.01;100.00;102651.88;5009304;28;20288;-73
2024/01/29 00:09:48;;;;;;;10.03;5.53;;;;;;;0.02;100.00;102648.28;5008279;28;20224;-73
2024/01/29 00:12:14;;;;;;;10.80;4.07;;;;;;;0.01;100.00;102646.69;5007385;28;20727;-73
2024/01/29 00:14:41;;;;;;;16.67;4.70;;;;;;;0.02;100.00;102637.13;5008730;28;20211;-73
2024/01/29 00:17:07;;;;;;;11.80;4.87;;;;;;;0.04;100.00;102635.91;5007317;28;20220;-73
2024/01/29 00:19:35;;;;;;;12.93;5.27;;;;;;;0.05;100.00;102627.09;5007221;28;20768;-73
2024/01/29 00:22:01;;;;;;;8.80;4.63;;;;;;;0.07;100.00;102637.31;5007092;28;20199;-73
2024/01/29 00:24:29;;;;;;;11.47;4.60;;;;;;;0.09;100.00;102627.50;5006686;28;20200;-73
2024/01/29 00:26:56;;;;;;;12.57;5.23;;;;;;;0.13;100.00;102639.88;5009643;28;20323;-73
2024/01/29 00:29:22;;;;;;;10.47;5.40;;;;;;;0.14;100.00;102631.06;5007973;28;20196;-73
2024/01/29 00:31:49;;;;;;;12.70;5.00;;;;;;;0.17;100.00;102629.88;5003982;28;20221;-73
2024/01/29 00:34:15;;;;;;;12.70;5.43;;;;;;;0.16;100.00;102629.06;5009604;28;20192;-73
2024/01/29 00:36:42;;;;;;;11.73;4.60;;;;;;;0.19;100.00;102633.84;5005669;28;20213;-73
2024/01/29 00:39:09;;;;;;;12.23;5.13;;;;;;;0.19;100.00;102633.84;5010708;28;20734;-73
2024/01/29 00:41:37;;;;;;;9.83;4.23;;;;;;;0.17;100.00;102635.84;5007667;28;20258;-73
2024/01/29 00:44:04;;;;;;;17.93;5.03;;;;;;;0.16;100.00;102642.03;5004932;28;20211;-73
2024/01/29 00:46:31;;;;;;;10.77;4.87;;;;;;;0.15;100.00;102642.25;5006465;28;20240;-72
2024/01/29 00:48:57;;;;;;;9.27;4.77;;;;;;;0.14;100.00;102651.03;5007123;28;20199;-73
2024/01/29 00:51:24;;;;;;;13.30;4.43;;;;;;;0.12;100.00;102642.69;5023833;28;20263;-73
2024/01/29 00:53:50;;;;;;;14.73;4.30;;;;;;;0.10;100.00;102635.09;5007104;28;20208;-73
2024/01/29 00:56:17;;;;;;;8.90;4.60;;;;;;;0.07;100.00;102635.47;5005751;28;20212;-73
2024/01/29 00:58:45;;;;;;;9.57;4.53;;;;;;;0.05;100.00;102631.50;5004870;28;20212;-73
2024/01/29 01:01:12;;;;;;;10.67;4.63;;;;;;;0.02;100.00;102639.72;5005994;28;20204;-73
2024/01/29 01:03:38;;;;;;;10.60;4.27;;;;;;;-0.02;100.00;102634.13;5002693;28;20267;-73
2024/01/29 01:06:05;;;;;;;8.40;4.60;;;;;;;-0.02;100.00;102633.34;5001987;28;20229;-73
2024/01/29 01:08:31;;;;;;;13.10;4.93;;;;;;;-0.05;100.00;102633.75;5007250;28;20232;-73
2024/01/29 01:10:58;;;;;;;13.70;4.97;;;;;;;-0.08;100.00;102626.38;5006582;28;20201;-73
2024/01/29 01:13:24;;;;;;;13.13;4.13;;;;;;;-0.10;100.00;102628.38;5006530;28;20192;-73
2024/01/29 01:15:52;;;;;;;11.00;4.37;;;;;;;-0.12;100.00;102631.19;5005249;28;20224;-73
2024/01/29 01:18:19;;;;;;;9.10;4.70;;;;;;;-0.13;100.00;102627.00;5005438;28;20671;-73
2024/01/29 01:20:45;;;;;;;12.00;4.77;;;;;;;-0.13;100.00;102633.97;5003746;28;21902;-73
2024/01/29 01:23:12;;;;;;;9.37;4.17;;;;;;;-0.14;100.00;102633.16;5005177;28;20200;-73
2024/01/29 01:25:38;;;;;;;10.00;4.40;;;;;;;-0.17;100.00;102622.41;5000862;28;20216;-73
2024/01/29 01:28:07;;;;;;;10.13;4.30;;;;;;;-0.19;100.00;102621.81;5002264;28;20193;-73
2024/01/29 01:30:33;;;;;;;8.63;4.40;;;;;;;-0.24;100.00;102619.81;5001209;28;20200;-73
2024/01/29 01:33:02;;;;;;;11.30;4.63;;;;;;;-0.27;100.00;102616.84;5006324;28;20207;-73
2024/01/29 01:35:29;;;;;;;11.77;4.43;;;;;;;-0.31;100.00;102613.84;5021254;28;20691;-73
2024/01/29 01:37:59;;;;;;;7.30;4.00;;;;;;;-0.33;100.00;102617.66;5004968;28;20290;-73
2024/01/29 01:40:27;;;;;;;11.20;4.77;;;;;;;-0.37;100.00;102604.28;5004887;28;20204;-73
2024/01/29 01:42:57;;;;;;;6.63;3.90;;;;;;;-0.40;100.00;102604.69;5018746;28;20306;-73
2024/01/29 01:45:24;;;;;;;13.50;4.60;;;;;;;-0.41;100.00;102605.69;5006665;28;20303;-73
2024/01/29 01:47:55;;;;;;;7.70;3.60;;;;;;;-0.42;100.00;102608.50;5002688;28;20208;-73
2024/01/29 01:50:24;;;;;;;8.90;4.03;;;;;;;-0.41;100.00;102612.69;5010671;28;20270;-73
2024/01/29 01:52:52;;;;;;;14.53;4.23;;;;;;;-0.41;100.00;102615.28;5022147;28;20227;-73
2024/01/29 01:55:20;;;;;;;8.73;3.97;;;;;;;-0.40;100.00;102606.50;5007875;28;20216;-73
2024/01/29 01:57:47;;;;;;;11.90;3.90;;;;;;;-0.38;100.00;102601.91;5008121;28;20643;-73
2024/01/29 02:00:15;;;;;;;13.03;4.40;;;;;;;-0.36;100.00;102608.47;5009194;28;20216;-73
2024/01/29 02:02:42;;;;;;;12.73;3.97;;;;;;;-0.35;100.00;102604.88;5010212;28;20199;-73
2024/01/29 02:05:09;;;;;;;12.73;4.70;;;;;;;-0.35;100.00;102610.06;5011079;28;20220;-73
2024/01/29 02:07:36;;;;;;;15.07;4.60;;;;;;;-0.33;100.00;102601.31;5009050;28;20236;-73
2024/01/29 02:10:04;;;;;;;8.77;4.47;;;;;;;-0.33;100.00;102596.13;5012094;28;20196;-73
2024/01/29 02:12:31;;;;;;;12.87;4.40;;;;;;;-0.35;100.00;102597.09;5008762;28;20208;-73
2024/01/29 02:14:58;;;;;;;10.23;3.97;;;;;;;-0.33;100.00;102589.09;5007971;28;20532;-73
2024/01/29 02:17:24;;;;;;;11.53;3.93;;;;;;;-0.33;100.00;102581.31;5010381;28;20667;-72
2024/01/29 02:19:51;;;;;;;12.07;4.33;;;;;;;-0.34;100.00;102582.31;5007768;28;20200;-73
2024/01/29 02:22:17;;;;;;;11.77;3.97;;;;;;;-0.32;100.00;102582.13;5008823;28;20247;-73
2024/01/29 02:24:45;;;;;;;14.07;4.50;;;;;;;-0.31;100.00;102576.75;5011600;28;20215;-73
2024/01/29 02:27:12;;;;;;;7.47;3.83;;;;;;;-0.30;100.00;102579.09;5011208;28;20197;-73
2024/01/29 02:29:38;;;;;;;7.73;3.67;;;;;;;-0.27;100.00;102575.31;5009351;28;20200;-73
2024/01/29 02:32:06;;;;;;;8.33;3.77;;;;;;;-0.27;100.00;102570.91;5010157;28;20204;-73
2024/01/29 02:34:32;;;;;;;10.17;4.23;;;;;;;-0.27;100.00;102570.13;5008811;28;20199;-73
2024/01/29 02:36:59;;;;;;;7.67;3.60;;;;;;;-0.24;100.00;102564.53;5006012;28;20217;-73
2024/01/29 02:39:25;;;;;;;8.40;3.73;;;;;;;-0.22;100.00;102567.69;5006535;28;20201;-73
2024/01/29 02:41:53;;;;;;;10.63;4.10;;;;;;;-0.22;100.00;102565.91;5009296;28;20196;-73
2024/01/29 02:44:20;;;;;;;9.60;3.37;;;;;;;-0.17;100.00;102554.91;5007924;28;20207;-73
2024/01/29 02:46:46;;;;;;;10.20;3.77;;;;;;;-0.15;100.00;102558.09;5007222;28;20224;-73
2024/01/29 02:49:13;;;;;;;9.87;3.50;;;;;;;-0.13;100.00;102554.31;5010481;28;20203;-73
2024/01/29 02:51:39;;;;;;;9.43;3.73;;;;;;;-0.11;100.00;102544.50;5007779;28;20218;-73
2024/01/29 02:54:06;;;;;;;10.00;4.03;;;;;;;-0.09;100.00;102539.09;5012447;28;20197;-73
2024/01/29 02:56:32;;;;;;;8.20;3.53;;;;;;;-0.08;100.00;102544.09;5009344;28;20228;-73
2024/01/29 02:59:01;;;;;;;8.43;3.90;;;;;;;-0.06;100.00;102539.47;5008755;28;20220;-73
2024/01/29 03:01:27;;;;;;;7.70;3.87;;;;;;;-0.03;100.00;102533.06;5007447;28;20228;-73
2024/01/29 03:03:54;;;;;;;9.37;3.63;;;;;;;0.02;100.00;102533.25;5009136;28;20255;-73
2024/01/29 03:06:20;;;;;;;9.63;3.60;;;;;;;0.03;100.00;102532.22;5009740;28;20735;-73
2024/01/29 03:08:47;;;;;;;6.77;3.67;;;;;;;0.08;100.00;102529.81;5009362;28;20197;-73
2024/01/29 03:11:13;;;;;;;8.87;3.50;;;;;;;0.14;100.00;102534.16;5010590;28;20208;-73
2024/01/29 03:13:40;;;;;;;6.13;3.30;;;;;;;0.17;100.00;102529.34;5009331;28;20204;-73
2024/01/29 03:16:08;;;;;;;14.10;4.30;;;;;;;0.21;100.00;102540.13;5038576;28;20239;-73
2024/01/29 03:18:35;;;;;;;8.17;4.00;;;;;;;0.24;100.00;102529.31;5003997;28;20219;-73
2024/01/29 03:21:03;;;;;;;13.30;4.17;;;;;;;0.26;100.00;102530.69;5011381;28;20193;-73
2024/01/29 03:23:29;;;;;;;7.83;3.37;;;;;;;0.27;100.00;102534.88;5011287;28;20192;-73
2024/01/29 03:25:56;;;;;;;7.43;4.10;;;;;;;0.28;100.00;102526.09;5009046;28;20220;-73
2024/01/29 03:28:22;;;;;;;8.63;3.33;;;;;;;0.28;100.00;102522.69;5009934;28;20205;-73
2024/01/29 03:30:49;;;;;;;7.53;3.60;;;;;;;0.27;100.00;102521.88;5011001;28;20583;-73
2024/01/29 03:33:17;;;;;;;9.03;3.40;;;;;;;0.27;100.00;102526.31;5011257;28;20555;-73
2024/01/29 03:35:43;;;;;;;7.40;3.43;;;;;;;0.28;100.00;102528.69;5010700;28;20227;-73
2024/01/29 03:38:10;;;;;;;8.60;3.30;;;;;;;0.27;100.00;102515.91;5012634;28;20197;-72
2024/01/29 03:40:36;;;;;;;10.33;3.47;;;;;;;0.27;100.00;102516.69;5022804;28;20204;-73
2024/01/29 03:43:03;;;;;;;7.03;3.20;;;;;;;0.28;100.00;102523.50;5030549;28;20196;-73
2024/01/29 03:45:29;;;;;;;4.93;2.60;;;;;;;0.28;100.00;102520.91;5015963;28;20224;-73
2024/01/29 03:47:56;;;;;;;8.70;3.80;;;;;;;0.29;100.00;102525.09;5016041;28;20197;-73
2024/01/29 03:50:24;;;;;;;11.20;3.53;;;;;;;0.30;100.00;102528.47;5015547;28;20215;-73
2024/01/29 03:52:51;;;;;;;5.63;2.90;;;;;;;0.30;100.00;102525.88;5010960;28;21447;-73
2024/01/29 03:55:17;;;;;;;6.53;3.20;;;;;;;0.31;100.00;102517.06;5015344;28;20486;-73
2024/01/29 03:57:44;;;;;;;5.87;2.80;;;;;;;0.30;100.00;102512.88;5015893;28;20204;-73
2024/01/29 04:00:12;;;;;;;5.07;3.00;;;;;;;0.31;100.00;102520.47;5022524;28;20201;-73
2024/01/29 04:02:39;;;;;;;6.00;2.93;;;;;;;0.30;100.00;102518.88;5025200;28;20245;-72
2024/01/29 04:05:09;;;;;;;10.87;2.90;;;;;;;0.33;100.00;102515.84;5032935;28;20383;-72
2024/01/29 04:07:37;;;;;;;5.20;2.83;;;;;;;0.33;100.00;102518.44;5033097;28;20181;-72
2024/01/29 04:10:04;;;;;;;4.70;2.77;;;;;;;0.33;100.00;102515.84;5034268;28;20172;-72
2024/01/29 04:12:31;;;;;;;7.67;2.80;;;;;;;0.33;100.00;102518.44;5030729;28;20346;-72
2024/01/29 04:14:57;;;;;;;6.97;2.80;;;;;;;0.34;100.00;102511.44;5033532;28;20183;-72
2024/01/29 04:17:24;;;;;;;7.30;2.40;;;;;;;0.33;100.00;102510.66;5029590;28;20219;-73
2024/01/29 04:19:50;;;;;;;4.93;2.43;;;;;;;0.34;100.00;102511.44;5019327;28;20263;-72
2024/01/29 04:22:17;;;;;;;5.60;2.87;;;;;;;0.33;100.00;102515.06;5018379;28;20268;-73
2024/01/29 04:24:45;;;;;;;3.47;2.60;;;;;;;0.32;100.00;102516.06;5011494;28;20560;-73
2024/01/29 04:27:11;;;;;;;4.40;2.37;;;;;;;0.32;100.00;102508.28;5008193;28;20549;-73
2024/01/29 04:29:39;;;;;;;6.57;2.60;;;;;;;0.29;100.00;102517.28;5020789;28;20211;-73
2024/01/29 04:32:05;;;;;;;6.93;2.87;;;;;;;0.28;100.00;102522.69;5006774;28;20318;-73
2024/01/29 04:34:32;;;;;;;8.77;3.03;;;;;;;0.26;100.00;102530.69;5006246;28;20240;-73
2024/01/29 04:36:59;;;;;;;8.30;3.03;;;;;;;0.23;100.00;102527.72;5003939;28;20224;-73
2024/01/29 04:39:25;;;;;;;4.50;2.43;;;;;;;0.19;100.00;102527.34;5007154;28;20270;-73
2024/01/29 04:41:53;;;;;;;4.20;2.40;;;;;;;0.16;100.00;102529.56;5009346;28;20208;-73
2024/01/29 04:44:20;;;;;;;6.20;2.47;;;;;;;0.14;100.00;102529.78;5007422;28;20206;-73
2024/01/29 04:46:46;;;;;;;4.70;3.00;;;;;;;0.08;100.00;102520.22;5009049;28;20235;-73
2024/01/29 04:49:13;;;;;;;5.03;2.80;;;;;;;0.06;100.00;102527.41;5009675;28;20257;-73
2024/01/29 04:51:39;;;;;;;9.80;3.60;;;;;;;0.01;100.00;102523.88;5007219;28;20209;-73
2024/01/29 04:54:06;;;;;;;10.20;4.27;;;;;;;-0.04;100.00;102521.88;5004357;28;20208;-73
2024/01/29 04:56:32;;;;;;;4.00;2.80;;;;;;;-0.07;100.00;102519.72;5004062;28;20221;-73
2024/01/29 04:59:00;;;;;;;7.07;3.10;;;;;;;-0.10;100.00;102514.16;5002353;28;20220;-73
2024/01/29 05:01:27;;;;;;;9.43;3.10;;;;;;;-0.14;100.00;102507.78;5005980;28;20192;-73
2024/01/29 05:03:54;;;;;;;7.03;2.80;;;;;;;-0.15;100.00;102506.19;5005053;28;20208;-73
2024/01/29 05:06:21;;;;;;;7.53;2.93;;;;;;;-0.18;100.00;102506.59;5007909;28;20224;-73
2024/01/29 05:08:47;;;;;;;6.53;2.50;;;;;;;-0.20;100.00;102511.97;5004994;28;20208;-73
2024/01/29 05:11:14;;;;;;;5.33;2.77;;;;;;;-0.21;100.00;102514.78;5001655;28;20193;-73
2024/01/29 05:13:40;;;;;;;7.27;2.83;;;;;;;-0.22;100.00;102515.00;5003656;28;20226;-73
2024/01/29 05:16:10;;;;;;;8.43;2.70;;;;;;;-0.22;100.00;102512.41;5006450;28;20442;-73
2024/01/29 05:18:37;;;;;;;3.93;2.53;;;;;;;-0.23;100.00;102514.19;5008625;28;20283;-73
2024/01/29 05:21:04;;;;;;;3.53;2.50;;;;;;;-0.22;100.00;102517.59;5008863;28;20703;-73
2024/01/29 05:23:31;;;;;;;5.70;2.90;;;;;;;-0.21;100.00;102523.38;5007174;28;20196;-73
2024/01/29 05:25:57;;;;;;;9.10;3.10;;;;;;;-0.21;100.00;102517.38;5028674;28;20220;-73
2024/01/29 05:28:24;;;;;;;4.40;2.60;;;;;;;-0.20;100.00;102514.56;5011027;28;20598;-73
2024/01/29 05:30:52;;;;;;;7.40;2.70;;;;;;;-0.20;100.00;102509.38;5013517;28;20200;-73
2024/01/29 05:33:20;;;;;;;6.87;3.37;;;;;;;-0.20;100.00;102506.78;5014196;28;20212;-73
2024/01/29 05:35:47;;;;;;;5.67;2.80;;;;;;;-0.18;100.00;102506.59;5010748;28;20282;-73
2024/01/29 05:38:13;;;;;;;8.63;3.10;;;;;;;-0.19;100.00;102503.19;5028328;28;20294;-73
2024/01/29 05:40:40;;;;;;;7.67;3.37;;;;;;;-0.15;100.00;102504.38;5021818;28;20213;-73
2024/01/29 05:43:06;;;;;;;5.03;3.03;;;;;;;-0.14;100.00;102500.75;5009980;28;20556;-73
2024/01/29 05:45:33;;;;;;;5.47;2.97;;;;;;;-0.13;100.00;102501.56;5012067;28;20220;-73
2024/01/29 05:48:03;;;;;;;8.77;3.23;;;;;;;-0.13;100.00;102504.97;5014769;28;20204;-73
2024/01/29 05:50:31;;;;;;;5.07;2.93;;;;;;;-0.11;100.00;102497.75;5009315;28;20676;-73
2024/01/29 05:52:58;;;;;;;7.77;2.83;;;;;;;-0.08;100.00;102501.75;5008988;28;20301;-73
2024/01/29 05:55:24;;;;;;;5.10;3.10;;;;;;;-0.07;100.00;102511.91;5011913;28;20224;-73
2024/01/29 05:57:51;;;;;;;4.67;2.63;;;;;;;-0.06;100.00;102512.69;5012943;28;20263;-73
2024/01/29 06:00:18;;;;;;;8.13;3.03;;;;;;;-0.05;100.00;102507.31;5010098;28;20196;-73
2024/01/29 06:02:47;;;;;;;6.73;3.17;;;;;;;-0.04;100.00;102501.09;5004591;28;20567;-73
2024/01/29 06:05:14;;;;;;;5.43;3.10;;;;;;;-0.02;100.00;102508.69;5012967;28;20703;-73
2024/01/29 06:07:42;;;;;;;5.77;2.67;;;;;;;-0.01;100.00;102500.69;5007038;28;20196;-73
2024/01/29 06:10:11;;;;;;;5.97;3.07;;;;;;;-0.01;100.00;102500.69;5009441;28;20200;-73
2024/01/29 06:12:37;;;;;;;5.30;2.97;;;;;;;0.00;100.00;102501.50;5010593;28;20584;-73
2024/01/29 06:15:05;;;;;;;6.60;2.70;;;;;;;0.00;100.00;102504.09;5012836;28;20196;-73
2024/01/29 06:17:31;;;;;;;7.57;3.50;;;;;;;-0.02;100.00;102506.91;5010573;28;20596;-73
2024/01/29 06:19:58;;;;;;;6.13;2.97;;;;;;;-0.03;100.00;102507.91;5009390;28;20207;-73
2024/01/29 06:22:24;;;;;;;6.57;3.50;;;;;;;-0.03;100.00;102510.50;5008949;28;20303;-73
2024/01/29 06:24:52;;;;;;;10.93;4.27;;;;;;;-0.04;100.00;102505.53;5011190;28;20564;-73
2024/01/29 06:27:19;;;;;;;6.87;3.50;;;;;;;-0.05;100.00;102502.13;5015192;28;20208;-73
2024/01/29 06:29:45;;;;;;;6.27;3.33;;;;;;;-0.06;100.00;102505.72;5008657;28;20201;-73
2024/01/29 06:32:12;;;;;;;5.83;2.83;;;;;;;-0.05;100.00;102498.75;5009674;28;20213;-73
2024/01/29 06:34:39;;;;;;;4.47;2.77;;;;;;;-0.06;100.00;102497.94;5009307;28;20208;-73
2024/01/29 06:37:05;;;;;;;6.53;2.83;;;;;;;-0.05;100.00;102499.50;5011933;28;20632;-73
2024/01/29 06:39:33;;;;;;;5.60;3.00;;;;;;;-0.05;100.00;102496.91;5012032;28;20204;-73
2024/01/29 06:42:01;;;;;;;5.23;3.03;;;;;;;-0.04;100.00;102490.72;5007313;28;20200;-73
2024/01/29 06:44:27;;;;;;;7.83;2.70;;;;;;;-0.02;100.00;102493.13;5026740;28;20223;-73
2024/01/29 06:46:54;;;;;;;5.40;3.00;;;;;;;-0.02;100.00;102487.91;5009195;28;20224;-73
2024/01/29 06:49:28;;;;;;;5.07;3.40;;;;;;;-0.01;100.00;102487.72;5011828;28;20302;-73
2024/01/29 06:51:54;;;;;;;5.33;3.10;;;;;;;0.00;100.00;102497.09;5007240;28;20587;-73
2024/01/29 06:54:21;;;;;;;5.33;3.23;;;;;;;0.02;100.00;102495.06;5008318;28;20200;-73
2024/01/29 06:56:48;;;;;;;5.53;3.00;;;;;;;0.04;100.00;102489.66;5008286;28;20220;-73
2024/01/29 06:59:16;;;;;;;9.53;2.77;;;;;;;0.05;100.00;102492.06;5008334;28;20568;-73
2024/01/29 07:01:42;;;;;;;4.70;2.70;;;;;;;0.05;100.00;102499.84;5027022;28;20723;-73
2024/01/29 07:04:09;;;;;;;5.23;3.20;;;;;;;0.07;100.00;102500.44;5007040;28;20555;-73
2024/01/29 07:06:35;;;;;;;8.37;3.43;;;;;;;0.11;100.00;102500.84;5010557;28;20220;-73
2024/01/29 07:09:03;;;;;;;8.70;4.13;;;;;;;0.10;100.00;102512.19;5008475;28;20203;-73
2024/01/29 07:11:29;;;;;;;8.53;3.80;;;;;;;0.12;100.00;102505.03;5005532;28;20615;-73
2024/01/29 07:13:56;;;;;;;7.00;3.40;;;;;;;0.13;100.00;102509.19;5010476;28;20588;-73
2024/01/29 07:16:24;;;;;;;12.07;3.87;;;;;;;0.14;100.00;102510.78;5010015;28;20228;-73
2024/01/29 07:18:50;;;;;;;7.43;3.80;;;;;;;0.15;100.00;102514.97;5011298;28;20251;-73
2024/01/29 07:21:17;;;;;;;8.20;3.43;;;;;;;0.16;100.00;102512.16;5011973;28;20200;-73
2024/01/29 07:23:43;;;;;;;7.00;3.80;;;;;;;0.17;100.00;102511.16;5007777;28;20204;-73
2024/01/29 07:26:10;;;;;;;9.67;3.70;;;;;;;0.19;100.00;102514.38;5017557;28;20696;-73
2024/01/29 07:28:36;;;;;;;11.63;5.53;;;;;;;0.22;100.00;102521.72;5010964;28;20680;-73
2024/01/29 07:31:03;;;;;;;17.23;5.27;;;;;;;0.25;100.00;102516.13;5012296;28;20600;-73
2024/01/29 07:33:31;;;;;;;9.07;3.67;;;;;;;0.27;100.00;102511.50;5008878;28;20244;-73
2024/01/29 07:35:58;;;;;;;7.50;4.20;;;;;;;0.31;100.00;102519.66;5008771;28;20248;-73
2024/01/29 07:38:25;;;;;;;8.03;3.83;;;;;;;0.36;100.00;102520.63;5010465;28;20200;-73
2024/01/29 07:40:51;;;;;;;6.40;3.17;;;;;;;0.42;100.00;102512.00;5008054;28;20204;-73
2024/01/29 07:43:18;;;;;;;7.93;3.77;;;;;;;0.51;100.00;102515.13;5011203;28;20582;-73
2024/01/29 07:45:44;;;;;;;6.97;2.97;;;;;;;0.57;100.00;102514.28;5001143;28;20221;-73
2024/01/29 07:48:11;;;;;;;7.87;3.30;;;;;;;0.62;100.00;102515.22;5011284;28;20203;-73
2024/01/29 07:50:39;;;;;;;11.97;3.57;;;;;;;0.69;100.00;102518.56;5012683;28;20725;-73
2024/01/29 07:53:06;;;;;;;5.60;3.40;;;;;;;0.79;100.00;102523.31;5010881;28;20201;-73
2024/01/29 07:55:33;;;;;;;4.97;2.87;;;;;;;0.86;100.00;102518.81;5005322;28;20212;-73
2024/01/29 07:58:00;;;;;;;4.67;2.70;;;;;;;0.93;100.00;102519.53;5006867;28;20204;-73
2024/01/29 08:00:26;;;;;;;6.10;3.10;;;;;;;1.01;100.00;102522.69;5010965;28;20200;-73
2024/01/29 08:02:53;;;;;;;5.43;2.70;;;;;;;1.11;100.00;102516.97;5007423;28;20718;-73
2024/01/29 08:05:19;;;;;;;6.50;3.00;;;;;;;1.19;100.00;102522.69;5005394;28;20247;-73
2024/01/29 08:07:47;;;;;;;6.23;3.17;;;;;;;1.26;100.00;102518.22;5007316;28;20603;-73
2024/01/29 08:10:14;;;;;;;7.53;3.20;;;;;;;1.33;100.00;102516.34;5008242;28;20192;-73
2024/01/29 08:12:40;;;;;;;7.53;3.07;;;;;;;1.42;100.00;102520.25;5006183;28;20641;-73
2024/01/29 08:15:07;;;;;;;6.20;3.03;;;;;;;1.53;100.00;102523.91;5009177;28;20221;-73
2024/01/29 08:17:34;;;;;;;3.47;2.50;;;;;;;1.64;100.00;102521.38;5007792;28;20196;-73
2024/01/29 08:20:00;;;;;;;4.93;2.63;;;;;;;1.73;100.00;102529.69;5006640;28;20840;-73
2024/01/29 08:22:28;;;;;;;5.93;3.10;;;;;;;1.81;100.00;102514.56;5007013;28;20200;-73
2024/01/29 08:24:56;;;;;;;4.30;2.40;;;;;;;1.92;100.00;102515.63;5003959;28;20558;-73
2024/01/29 08:27:22;;;;;;;4.83;2.70;;;;;;;1.99;100.00;102511.91;5001128;28;20206;-73
2024/01/29 08:29:49;;;;;;;8.57;3.17;;;;;;;2.07;100.00;102510.81;5007137;28;20660;-73
2024/01/29 08:32:15;;;;;;;7.27;2.53;;;;;;;2.15;100.00;102506.06;5003893;28;20192;-73
2024/01/29 08:34:42;;;;;;;4.97;3.43;;;;;;;2.26;100.00;102500.09;5001085;28;20197;-73
2024/01/29 08:37:09;;;;;;;8.30;4.13;;;;;;;2.34;100.00;102504.19;5021179;28;20217;-73
2024/01/29 08:39:35;;;;;;;8.73;3.63;;;;;;;2.44;100.00;102497.38;5009575;28;20203;-73
2024/01/29 08:42:06;;;;;;;5.93;3.07;;;;;;;2.53;100.00;102503.06;4999993;28;20201;-73
2024/01/29 08:44:32;;;;;;;6.60;3.00;;;;;;;2.60;100.00;102504.53;5007460;28;20200;-73
2024/01/29 08:46:59;;;;;;;4.90;2.50;;;;;;;2.71;100.00;102503.75;5021149;28;20259;-73
2024/01/29 08:49:26;;;;;;;4.30;2.47;;;;;;;2.80;100.00;102501.63;5008902;28;20224;-73
2024/01/29 08:51:52;;;;;;;6.03;2.60;;;;;;;2.85;100.00;102491.31;5007389;28;20197;-73
2024/01/29 08:54:19;;;;;;;4.30;2.20;;;;;;;2.93;100.00;102496.16;5001840;28;20213;-73
2024/01/29 08:56:45;;;;;;;4.67;2.53;;;;;;;3.03;100.00;102496.38;5006004;28;20231;-73
2024/01/29 08:59:15;;;;;;;5.73;2.20;;;;;;;3.11;100.00;102490.81;5006072;28;20207;-73
2024/01/29 09:01:42;;;;;;;6.07;2.40;;;;;;;3.20;100.00;102497.25;5005717;28;20201;-74
2024/01/29 09:04:08;;;;;;;4.27;2.10;;;;;;;3.25;100.00;102505.19;5020481;28;20540;-73
2024/01/29 09:06:35;;;;;;;4.20;2.40;;;;;;;3.30;100.00;102505.28;5005955;28;20556;-73
2024/01/29 09:09:02;;;;;;;3.80;2.20;;;;;;;3.37;100.00;102506.75;5022018;28;20220;-73
2024/01/29 09:11:29;;;;;;;4.37;2.47;;;;;;;3.43;100.00;102503.22;5006679;28;20642;-73
2024/01/29 09:13:55;;;;;;;3.80;2.50;;;;;;;3.49;100.00;102511.97;5003931;28;20218;-73
2024/01/29 09:16:23;;;;;;;4.57;2.00;;;;;;;3.55;100.00;102509.22;5005772;28;20231;-73
2024/01/29 09:18:50;;;;;;;5.03;2.83;;;;;;;3.62;100.00;102511.69;5005871;28;20277;-73
2024/01/29 09:21:16;;;;;;;4.97;2.40;;;;;;;3.66;100.00;102516.22;5004091;28;20203;-73
2024/01/29 09:23:43;;;;;;;5.83;2.57;;;;;;;3.71;100.00;102516.31;5003742;28;20811;-73
2024/01/29 09:26:09;;;;;;;6.00;2.50;;;;;;;3.78;100.00;102508.34;5006599;28;20710;-73
2024/01/29 09:28:37;;;;;;;6.97;2.37;;;;;;;3.85;99.37;102501.16;5006998;28;20563;-73
2024/01/29 09:31:04;;;;;;;4.87;2.47;;;;;;;3.90;100.00;102506.47;5005197;28;20590;-72
2024/01/29 09:33:32;;;;;;;4.23;2.10;;;;;;;3.96;100.00;102518.59;5006460;28;20868;-73
2024/01/29 09:35:59;;;;;;;4.37;2.13;;;;;;;4.02;100.00;102515.84;5001734;28;20225;-73
2024/01/29 09:38:25;;;;;;;4.83;2.50;;;;;;;4.11;97.68;102514.44;5003370;28;20208;-73
2024/01/29 09:40:52;;;;;;;3.50;1.80;;;;;;;4.17;97.97;102518.72;5004903;28;20427;-73
2024/01/29 09:43:22;;;;;;;7.17;2.40;;;;;;;4.25;95.33;102517.56;5005184;28;20693;-73
2024/01/29 09:45:50;;;;;;;4.00;2.13;;;;;;;4.33;96.71;102520.56;5006994;28;20221;-73
2024/01/29 09:48:17;;;;;;;4.10;2.17;;;;;;;4.42;92.23;102520.97;5002740;28;20298;-73
2024/01/29 09:50:45;;;;;;;9.20;2.83;;;;;;;4.49;95.81;102518.97;5003996;28;20194;-73
2024/01/29 09:53:16;;;;;;;6.70;2.10;;;;;;;4.55;100.00;102510.16;5004017;28;20699;-73
2024/01/29 09:55:43;;;;;;;3.10;2.03;;;;;;;4.63;88.85;102507.97;5001923;28;20216;-73
2024/01/29 09:58:10;;;;;;;3.93;1.80;;;;;;;4.70;91.20;102507.78;5005906;28;20592;-73
2024/01/29 10:00:36;;;;;;;4.47;2.00;;;;;;;4.77;94.66;102511.81;5020309;28;20201;-73
2024/01/29 10:03:06;;;;;;;3.90;2.13;;;;;;;4.85;91.20;102506.19;5005064;28;20274;-73
2024/01/29 10:05:34;;;;;;;2.60;1.90;;;;;;;4.92;94.53;102511.28;4999947;28;20223;-73
2024/01/29 10:08:02;;;;;;;4.00;2.17;;;;;;;4.99;88.07;102511.88;5006287;28;20192;-73
2024/01/29 10:10:29;;;;;;;3.50;1.90;;;;;;;5.06;94.95;102507.25;5005834;28;20283;-73
2024/01/29 10:13:05;;;;;;;3.27;2.00;;;;;;;5.15;98.24;102503.19;5025217;28;20784;-73
2024/01/29 10:15:32;;;;;;;2.87;1.40;;;;;;;5.21;91.99;102502.22;5005988;28;20219;-73
2024/01/29 10:17:59;;;;;;;3.83;2.00;;;;;;;5.29;84.02;102499.97;5005963;28;20207;-73
2024/01/29 10:20:26;;;;;;;3.63;1.90;;;;;;;5.35;88.80;102498.22;5006654;28;20217;-73
2024/01/29 10:22:58;;;;;;;3.03;1.97;;;;;;;5.44;88.38;102502.78;5007325;28;20209;-73
2024/01/29 10:25:27;;;;;;;5.63;1.70;;;;;;;5.51;93.76;102490.28;5002474;28;20252;-73
2024/01/29 10:27:54;;;;;;;3.47;2.03;;;;;;;5.59;91.58;102491.69;5009302;28;20260;-73
2024/01/29 10:30:22;;;;;;;2.93;1.70;;;;;;;5.69;82.88;102503.06;5006249;28;20204;-73
2024/01/29 10:32:48;;;;;;;7.07;2.13;;;;;;;5.75;78.57;102502.06;5009171;28;20201;-73
2024/01/29 10:35:15;;;;;;;4.03;2.07;;;;;;;5.82;77.63;102500.09;5009801;28;20234;-73
2024/01/29 10:37:47;;;;;;;2.43;1.73;;;;;;;5.87;80.72;102500.16;5009294;28;20201;-73
2024/01/29 10:40:15;;;;;;;2.53;1.53;;;;;;;5.94;82.91;102494.69;5006622;28;20777;-73
2024/01/29 10:42:47;;;;;;;2.87;1.50;;;;;;;6.05;74.60;102489.28;5006970;28;20200;-73
2024/01/29 10:45:19;;;;;;;2.87;1.80;;;;;;;6.11;88.11;102488.28;5008914;28;20221;-73
2024/01/29 10:47:48;;;;;;;6.33;2.17;;;;;;;6.19;84.52;102469.50;4997255;28;20235;-73
2024/01/29 10:50:18;;;;;;;3.90;1.97;;;;;;;6.27;78.66;102481.34;5000185;28;20200;-73
2024/01/29 10:52:46;;;;;;;2.97;2.00;;;;;;;6.34;84.95;102472.25;5005872;28;20201;-73
2024/01/29 10:55:14;;;;;;;4.00;2.43;;;;;;;6.41;81.53;102466.75;5007504;28;20754;-73
2024/01/29 10:57:46;;;;;;;3.50;1.97;;;;;;;6.50;83.56;102473.13;5005970;28;20231;-73
2024/01/29 11:00:15;;;;;;;3.97;1.47;;;;;;;6.56;82.83;102467.66;5007723;28;20208;-73
2024/01/29 11:02:41;;;;;;;4.27;2.20;;;;;;;6.66;79.83;102472.19;5012545;28;20742;-73
2024/01/29 11:05:09;;;;;;;3.57;1.50;;;;;;;6.74;88.99;102471.72;5006648;28;20217;-73
2024/01/29 11:07:37;;;;;;;3.93;1.80;;;;;;;6.83;72.47;102468.34;5007197;28;20246;-73
2024/01/29 11:10:10;;;;;;;3.00;1.90;;;;;;;6.91;76.93;102473.13;5009102;28;20211;-73
2024/01/29 11:12:39;;;;;;;4.10;1.70;;;;;;;6.96;75.63;102467.09;5006842;28;20564;-73
2024/01/29 11:15:08;;;;;;;3.10;1.70;;;;;;;7.03;72.97;102465.81;5006312;28;20239;-73
2024/01/29 11:17:35;;;;;;;3.40;1.40;;;;;;;7.09;76.53;102464.78;5005458;28;20200;-73
2024/01/29 11:20:02;;;;;;;2.63;1.63;;;;;;;7.19;83.97;102464.84;5005644;28;20193;-73
2024/01/29 11:22:38;;;;;;;6.67;2.00;;;;;;;7.25;73.64;102461.19;5005648;28;20247;-73